sensor_id;sensor_type;location;lat;lon;timestamp;temperature;humidity
42019;DHT22;27703;51.980;5.848;2024-02-16T00:00:17;11.50;99.90
42019;DHT22;27703;51.980;5.848;2024-02-16T00:02:43;11.50;99.90
42019;DHT22;27703;51.980;5.848;2024-02-16T00:05:10;11.50;99.90
42019;DHT22;27703;51.980;5.848;2024-02-16T00:07:39;11.50;99.90
42019;DHT22;27703;51.980;5.848;2024-02-16T00:10:05;11.50;99.90
42019;DHT22;27703;51.980;5.848;2024-02-16T00:12:32;11.50;99.90
42019;DHT22;27703;51.980;5.848;2024-02-16T00:14:59;11.40;99.90
42019;DHT22;27703;51.980;5.848;2024-02-16T00:17:25;11.50;99.90
42019;DHT22;27703;51.980;5.848;2024-02-16T00:19:54;11.50;99.90
42019;DHT22;27703;51.980;5.848;2024-02-16T00:22:20;11.50;99.90
42019;DHT22;27703;51.980;5.848;2024-02-16T00:24:46;11.40;99.90
42019;DHT22;27703;51.980;5.848;2024-02-16T00:27:11;11.40;99.90
42019;DHT22;27703;51.980;5.848;2024-02-16T00:29:37;11.40;99.90
42019;DHT22;27703;51.980;5.848;2024-02-16T00:32:06;11.40;99.90
42019;DHT22;27703;51.980;5.848;2024-02-16T00:34:32;11.40;99.90
42019;DHT22;27703;51.980;5.848;2024-02-16T00:36:58;11.30;99.90
42019;DHT22;27703;51.980;5.848;2024-02-16T00:39:24;11.40;99.90
42019;DHT22;27703;51.980;5.848;2024-02-16T00:41:50;11.40;99.90
42019;DHT22;27703;51.980;5.848;2024-02-16T00:44:16;11.30;99.90
42019;DHT22;27703;51.980;5.848;2024-02-16T00:46:43;11.30;99.90
42019;DHT22;27703;51.980;5.848;2024-02-16T00:49:08;11.30;99.90
42019;DHT22;27703;51.980;5.848;2024-02-16T00:51:36;11.30;99.90
42019;DHT22;27703;51.980;5.848;2024-02-16T00:54:01;11.30;99.90
42019;DHT22;27703;51.980;5.848;2024-02-16T00:56:29;11.30;99.90
42019;DHT22;27703;51.980;5.848;2024-02-16T00:58:54;11.20;99.90
42019;DHT22;27703;51.980;5.848;2024-02-16T01:01:20;11.20;99.90
42019;DHT22;27703;51.980;5.848;2024-02-16T01:03:50;11.30;99.90
42019;DHT22;27703;51.980;5.848;2024-02-16T01:06:17;11.30;99.90
42019;DHT22;27703;51.980;5.848;2024-02-16T01:08:43;11.20;99.90
42019;DHT22;27703;51.980;5.848;2024-02-16T01:11:08;11.20;99.90
42019;DHT22;27703;51.980;5.848;2024-02-16T01:13:34;11.20;99.90
42019;DHT22;27703;51.980;5.848;2024-02-16T01:16:00;11.20;99.90
42019;DHT22;27703;51.980;5.848;2024-02-16T01:18:27;11.20;99.90
42019;DHT22;27703;51.980;5.848;2024-02-16T01:20:53;11.30;99.90
42019;DHT22;27703;51.980;5.848;2024-02-16T01:23:19;11.20;99.90
42019;DHT22;27703;51.980;5.848;2024-02-16T01:25:44;11.20;99.90
42019;DHT22;27703;51.980;5.848;2024-02-16T01:28:10;11.20;99.90
42019;DHT22;27703;51.980;5.848;2024-02-16T01:30:38;11.20;99.90
42019;DHT22;27703;51.980;5.848;2024-02-16T01:33:04;11.20;99.90
42019;DHT22;27703;51.980;5.848;2024-02-16T01:35:30;11.20;99.90
42019;DHT22;27703;51.980;5.848;2024-02-16T01:37:55;11.20;99.90
42019;DHT22;27703;51.980;5.848;2024-02-16T01:40:21;11.20;99.90
42019;DHT22;27703;51.980;5.848;2024-02-16T01:42:47;11.10;99.90
42019;DHT22;27703;51.980;5.848;2024-02-16T01:45:13;11.10;99.90
42019;DHT22;27703;51.980;5.848;2024-02-16T01:47:39;11.10;99.90
42019;DHT22;27703;51.980;5.848;2024-02-16T01:50:07;11.10;99.90
42019;DHT22;27703;51.980;5.848;2024-02-16T01:52:34;11.00;99.90
42019;DHT22;27703;51.980;5.848;2024-02-16T01:55:04;11.00;99.90
42019;DHT22;27703;51.980;5.848;2024-02-16T01:57:31;11.00;99.90
42019;DHT22;27703;51.980;5.848;2024-02-16T01:59:58;11.00;99.90
42019;DHT22;27703;51.980;5.848;2024-02-16T02:02:23;11.00;99.90
42019;DHT22;27703;51.980;5.848;2024-02-16T02:04:49;11.00;99.90
42019;DHT22;27703;51.980;5.848;2024-02-16T02:07:15;11.00;99.90
42019;DHT22;27703;51.980;5.848;2024-02-16T02:09:41;11.00;99.90
42019;DHT22;27703;51.980;5.848;2024-02-16T02:12:09;11.00;99.90
42019;DHT22;27703;51.980;5.848;2024-02-16T02:14:35;11.00;99.90
42019;DHT22;27703;51.980;5.848;2024-02-16T02:17:02;11.00;99.90
42019;DHT22;27703;51.980;5.848;2024-02-16T02:19:27;11.00;99.90
42019;DHT22;27703;51.980;5.848;2024-02-16T02:21:54;11.00;99.90
42019;DHT22;27703;51.980;5.848;2024-02-16T02:24:19;11.00;99.90
42019;DHT22;27703;51.980;5.848;2024-02-16T02:26:46;10.90;99.90
42019;DHT22;27703;51.980;5.848;2024-02-16T02:29:11;11.00;99.90
42019;DHT22;27703;51.980;5.848;2024-02-16T02:31:37;10.90;99.90
42019;DHT22;27703;51.980;5.848;2024-02-16T02:34:02;10.90;99.90
42019;DHT22;27703;51.980;5.848;2024-02-16T02:36:28;10.90;99.90
42019;DHT22;27703;51.980;5.848;2024-02-16T02:38:53;10.90;99.90
42019;DHT22;27703;51.980;5.848;2024-02-16T02:41:19;10.90;99.90
42019;DHT22;27703;51.980;5.848;2024-02-16T02:43:45;11.00;99.90
42019;DHT22;27703;51.980;5.848;2024-02-16T02:46:15;11.00;99.90
42019;DHT22;27703;51.980;5.848;2024-02-16T02:48:43;11.00;99.90
42019;DHT22;27703;51.980;5.848;2024-02-16T02:51:09;11.00;99.90
42019;DHT22;27703;51.980;5.848;2024-02-16T02:53:35;11.00;99.90
42019;DHT22;27703;51.980;5.848;2024-02-16T02:56:01;10.90;99.90
42019;DHT22;27703;51.980;5.848;2024-02-16T02:58:26;10.90;99.90
42019;DHT22;27703;51.980;5.848;2024-02-16T03:00:52;10.90;99.90
42019;DHT22;27703;51.980;5.848;2024-02-16T03:03:18;10.90;99.90
42019;DHT22;27703;51.980;5.848;2024-02-16T03:05:43;10.90;99.90
42019;DHT22;27703;51.980;5.848;2024-02-16T03:08:09;10.90;99.90
42019;DHT22;27703;51.980;5.848;2024-02-16T03:10:36;10.90;99.90
42019;DHT22;27703;51.980;5.848;2024-02-16T03:13:02;10.90;99.90
42019;DHT22;27703;51.980;5.848;2024-02-16T03:15:28;10.90;99.90
42019;DHT22;27703;51.980;5.848;2024-02-16T03:17:55;10.90;99.90
42019;DHT22;27703;51.980;5.848;2024-02-16T03:20:20;11.00;99.90
42019;DHT22;27703;51.980;5.848;2024-02-16T03:22:46;10.90;99.90
42019;DHT22;27703;51.980;5.848;2024-02-16T03:25:12;11.00;99.90
42019;DHT22;27703;51.980;5.848;2024-02-16T03:27:38;11.00;99.90
42019;DHT22;27703;51.980;5.848;2024-02-16T03:30:04;11.00;99.90
42019;DHT22;27703;51.980;5.848;2024-02-16T03:32:31;11.00;99.90
42019;DHT22;27703;51.980;5.848;2024-02-16T03:34:57;11.10;99.90
42019;DHT22;27703;51.980;5.848;2024-02-16T03:37:24;11.10;99.90
42019;DHT22;27703;51.980;5.848;2024-02-16T03:39:49;11.00;99.90
42019;DHT22;27703;51.980;5.848;2024-02-16T03:42:16;11.00;99.90
42019;DHT22;27703;51.980;5.848;2024-02-16T03:44:44;11.00;99.90
42019;DHT22;27703;51.980;5.848;2024-02-16T03:47:09;11.00;99.90
42019;DHT22;27703;51.980;5.848;2024-02-16T03:49:35;11.00;99.90
42019;DHT22;27703;51.980;5.848;2024-02-16T03:52:01;10.90;99.90
42019;DHT22;27703;51.980;5.848;2024-02-16T03:54:27;10.90;99.90
42019;DHT22;27703;51.980;5.848;2024-02-16T03:56:54;10.80;99.90
42019;DHT22;27703;51.980;5.848;2024-02-16T03:59:19;10.80;99.90
42019;DHT22;27703;51.980;5.848;2024-02-16T04:01:45;10.80;99.90
42019;DHT22;27703;51.980;5.848;2024-02-16T04:04:11;10.80;99.90
42019;DHT22;27703;51.980;5.848;2024-02-16T04:06:38;10.80;99.90
42019;DHT22;27703;51.980;5.848;2024-02-16T04:09:03;10.80;99.90
42019;DHT22;27703;51.980;5.848;2024-02-16T04:11:31;10.80;99.90
42019;DHT22;27703;51.980;5.848;2024-02-16T04:13:57;10.90;99.90
42019;DHT22;27703;51.980;5.848;2024-02-16T04:16:23;11.00;99.90
42019;DHT22;27703;51.980;5.848;2024-02-16T04:18:50;11.00;99.90
42019;DHT22;27703;51.980;5.848;2024-02-16T04:21:16;11.00;99.90
42019;DHT22;27703;51.980;5.848;2024-02-16T04:23:42;11.00;99.90
42019;DHT22;27703;51.980;5.848;2024-02-16T04:26:08;11.00;99.90
42019;DHT22;27703;51.980;5.848;2024-02-16T04:28:34;11.10;99.90
42019;DHT22;27703;51.980;5.848;2024-02-16T04:31:00;11.30;99.90
42019;DHT22;27703;51.980;5.848;2024-02-16T04:33:25;11.40;99.90
42019;DHT22;27703;51.980;5.848;2024-02-16T04:35:51;11.30;99.90
42019;DHT22;27703;51.980;5.848;2024-02-16T04:38:17;11.40;99.90
42019;DHT22;27703;51.980;5.848;2024-02-16T04:40:43;11.40;99.90
42019;DHT22;27703;51.980;5.848;2024-02-16T04:43:09;11.50;99.90
42019;DHT22;27703;51.980;5.848;2024-02-16T04:45:35;11.50;99.90
42019;DHT22;27703;51.980;5.848;2024-02-16T04:48:05;11.50;99.90
42019;DHT22;27703;51.980;5.848;2024-02-16T04:50:32;11.50;99.90
42019;DHT22;27703;51.980;5.848;2024-02-16T04:52:58;11.50;99.90
42019;DHT22;27703;51.980;5.848;2024-02-16T04:55:23;11.50;99.90
42019;DHT22;27703;51.980;5.848;2024-02-16T04:57:49;11.60;99.90
42019;DHT22;27703;51.980;5.848;2024-02-16T05:00:15;11.60;99.90
42019;DHT22;27703;51.980;5.848;2024-02-16T05:02:40;11.60;99.90
42019;DHT22;27703;51.980;5.848;2024-02-16T05:05:06;11.70;99.90
42019;DHT22;27703;51.980;5.848;2024-02-16T05:07:32;11.70;99.90
42019;DHT22;27703;51.980;5.848;2024-02-16T05:09:58;11.70;99.90
42019;DHT22;27703;51.980;5.848;2024-02-16T05:12:24;11.70;99.90
42019;DHT22;27703;51.980;5.848;2024-02-16T05:14:50;11.70;99.90
42019;DHT22;27703;51.980;5.848;2024-02-16T05:17:16;11.70;99.90
42019;DHT22;27703;51.980;5.848;2024-02-16T05:19:42;11.70;99.90
42019;DHT22;27703;51.980;5.848;2024-02-16T05:22:07;11.60;99.90
42019;DHT22;27703;51.980;5.848;2024-02-16T05:24:33;11.60;99.90
42019;DHT22;27703;51.980;5.848;2024-02-16T05:26:59;11.60;99.90
42019;DHT22;27703;51.980;5.848;2024-02-16T05:29:25;11.60;99.90
42019;DHT22;27703;51.980;5.848;2024-02-16T05:31:52;11.60;99.90
42019;DHT22;27703;51.980;5.848;2024-02-16T05:34:18;11.60;99.90
42019;DHT22;27703;51.980;5.848;2024-02-16T05:36:44;11.60;99.90
42019;DHT22;27703;51.980;5.848;2024-02-16T05:39:10;11.60;99.90
42019;DHT22;27703;51.980;5.848;2024-02-16T05:41:46;11.60;99.90
42019;DHT22;27703;51.980;5.848;2024-02-16T05:44:12;11.60;99.90
42019;DHT22;27703;51.980;5.848;2024-02-16T05:46:38;11.60;99.90
42019;DHT22;27703;51.980;5.848;2024-02-16T05:49:04;11.60;99.90
42019;DHT22;27703;51.980;5.848;2024-02-16T05:51:37;11.60;99.90
42019;DHT22;27703;51.980;5.848;2024-02-16T05:54:04;11.60;99.90
42019;DHT22;27703;51.980;5.848;2024-02-16T05:56:30;11.70;99.90
42019;DHT22;27703;51.980;5.848;2024-02-16T05:59:01;11.60;99.90
42019;DHT22;27703;51.980;5.848;2024-02-16T06:01:27;11.60;99.90
42019;DHT22;27703;51.980;5.848;2024-02-16T06:03:54;11.60;99.90
42019;DHT22;27703;51.980;5.848;2024-02-16T06:06:19;11.60;99.90
42019;DHT22;27703;51.980;5.848;2024-02-16T06:08:45;11.60;99.90
42019;DHT22;27703;51.980;5.848;2024-02-16T06:11:10;11.60;99.90
42019;DHT22;27703;51.980;5.848;2024-02-16T06:13:36;11.60;99.90
42019;DHT22;27703;51.980;5.848;2024-02-16T06:16:05;11.60;99.90
42019;DHT22;27703;51.980;5.848;2024-02-16T06:18:34;11.60;99.90
42019;DHT22;27703;51.980;5.848;2024-02-16T06:20:59;11.60;99.90
42019;DHT22;27703;51.980;5.848;2024-02-16T06:23:25;11.60;99.90
42019;DHT22;27703;51.980;5.848;2024-02-16T06:25:50;11.60;99.90
42019;DHT22;27703;51.980;5.848;2024-02-16T06:28:16;11.60;99.90
42019;DHT22;27703;51.980;5.848;2024-02-16T06:30:42;11.70;99.90
42019;DHT22;27703;51.980;5.848;2024-02-16T06:33:07;11.70;99.90
42019;DHT22;27703;51.980;5.848;2024-02-16T06:35:33;11.70;99.90
42019;DHT22;27703;51.980;5.848;2024-02-16T06:37:58;11.70;99.90
42019;DHT22;27703;51.980;5.848;2024-02-16T06:40:24;11.70;99.90
42019;DHT22;27703;51.980;5.848;2024-02-16T06:42:52;11.70;99.90
42019;DHT22;27703;51.980;5.848;2024-02-16T06:45:17;11.70;99.90
42019;DHT22;27703;51.980;5.848;2024-02-16T06:47:43;11.70;99.90
42019;DHT22;27703;51.980;5.848;2024-02-16T06:50:08;11.70;99.90
42019;DHT22;27703;51.980;5.848;2024-02-16T06:52:34;11.70;99.90
42019;DHT22;27703;51.980;5.848;2024-02-16T06:55:00;11.70;99.90
42019;DHT22;27703;51.980;5.848;2024-02-16T06:57:25;11.70;99.90
42019;DHT22;27703;51.980;5.848;2024-02-16T06:59:51;11.70;99.90
42019;DHT22;27703;51.980;5.848;2024-02-16T07:02:18;11.70;99.90
42019;DHT22;27703;51.980;5.848;2024-02-16T07:04:44;11.70;99.90
42019;DHT22;27703;51.980;5.848;2024-02-16T07:07:11;11.70;99.90
42019;DHT22;27703;51.980;5.848;2024-02-16T07:09:37;11.70;99.90
42019;DHT22;27703;51.980;5.848;2024-02-16T07:12:06;11.70;99.90
42019;DHT22;27703;51.980;5.848;2024-02-16T07:14:32;11.70;99.90
42019;DHT22;27703;51.980;5.848;2024-02-16T07:16:57;11.70;99.90
42019;DHT22;27703;51.980;5.848;2024-02-16T07:19:23;11.70;99.90
42019;DHT22;27703;51.980;5.848;2024-02-16T07:21:48;11.80;99.90
42019;DHT22;27703;51.980;5.848;2024-02-16T07:24:15;11.70;99.90
42019;DHT22;27703;51.980;5.848;2024-02-16T07:26:41;11.80;99.90
42019;DHT22;27703;51.980;5.848;2024-02-16T07:29:07;11.80;99.90
42019;DHT22;27703;51.980;5.848;2024-02-16T07:31:34;11.80;99.90
42019;DHT22;27703;51.980;5.848;2024-02-16T07:34:02;11.80;99.90
42019;DHT22;27703;51.980;5.848;2024-02-16T07:36:29;11.80;99.90
42019;DHT22;27703;51.980;5.848;2024-02-16T07:38:54;11.80;99.90
42019;DHT22;27703;51.980;5.848;2024-02-16T07:41:20;11.90;99.90
42019;DHT22;27703;51.980;5.848;2024-02-16T07:43:46;11.90;99.90
42019;DHT22;27703;51.980;5.848;2024-02-16T07:46:11;11.90;99.90
42019;DHT22;27703;51.980;5.848;2024-02-16T07:48:38;11.90;99.90
42019;DHT22;27703;51.980;5.848;2024-02-16T07:51:04;11.90;99.90
42019;DHT22;27703;51.980;5.848;2024-02-16T07:53:30;12.00;99.90
42019;DHT22;27703;51.980;5.848;2024-02-16T07:55:56;12.00;99.90
42019;DHT22;27703;51.980;5.848;2024-02-16T07:58:23;12.00;99.90
42019;DHT22;27703;51.980;5.848;2024-02-16T08:00:49;12.00;99.90
42019;DHT22;27703;51.980;5.848;2024-02-16T08:03:16;12.00;99.90
42019;DHT22;27703;51.980;5.848;2024-02-16T08:05:41;12.00;99.90
42019;DHT22;27703;51.980;5.848;2024-02-16T08:08:07;12.00;99.90
42019;DHT22;27703;51.980;5.848;2024-02-16T08:10:33;12.10;99.90
42019;DHT22;27703;51.980;5.848;2024-02-16T08:12:58;12.00;99.90
42019;DHT22;27703;51.980;5.848;2024-02-16T08:15:24;12.10;99.90
42019;DHT22;27703;51.980;5.848;2024-02-16T08:17:51;12.10;99.90
42019;DHT22;27703;51.980;5.848;2024-02-16T08:20:17;12.10;99.90
42019;DHT22;27703;51.980;5.848;2024-02-16T08:22:42;12.10;99.90
42019;DHT22;27703;51.980;5.848;2024-02-16T08:25:08;12.20;99.90
42019;DHT22;27703;51.980;5.848;2024-02-16T08:27:34;12.20;99.90
42019;DHT22;27703;51.980;5.848;2024-02-16T08:29:59;12.20;99.90
42019;DHT22;27703;51.980;5.848;2024-02-16T08:32:27;12.30;99.90
42019;DHT22;27703;51.980;5.848;2024-02-16T08:34:53;12.30;99.90
42019;DHT22;27703;51.980;5.848;2024-02-16T08:37:21;12.30;99.90
42019;DHT22;27703;51.980;5.848;2024-02-16T08:39:47;12.30;99.90
42019;DHT22;27703;51.980;5.848;2024-02-16T08:42:12;12.40;99.90
42019;DHT22;27703;51.980;5.848;2024-02-16T08:44:38;12.40;99.90
42019;DHT22;27703;51.980;5.848;2024-02-16T08:47:08;12.40;99.90
42019;DHT22;27703;51.980;5.848;2024-02-16T08:49:34;12.50;99.90
42019;DHT22;27703;51.980;5.848;2024-02-16T08:52:00;12.50;99.90
42019;DHT22;27703;51.980;5.848;2024-02-16T08:54:26;12.50;99.90
42019;DHT22;27703;51.980;5.848;2024-02-16T08:56:55;12.60;99.90
42019;DHT22;27703;51.980;5.848;2024-02-16T08:59:20;12.60;99.90
42019;DHT22;27703;51.980;5.848;2024-02-16T09:01:46;12.60;99.90
42019;DHT22;27703;51.980;5.848;2024-02-16T09:04:12;12.70;99.90
42019;DHT22;27703;51.980;5.848;2024-02-16T09:06:37;12.70;99.90
42019;DHT22;27703;51.980;5.848;2024-02-16T09:09:04;12.80;99.90
42019;DHT22;27703;51.980;5.848;2024-02-16T09:11:32;12.80;99.90
42019;DHT22;27703;51.980;5.848;2024-02-16T09:13:57;12.80;99.90
42019;DHT22;27703;51.980;5.848;2024-02-16T09:16:23;12.80;99.90
42019;DHT22;27703;51.980;5.848;2024-02-16T09:18:48;12.80;99.90
42019;DHT22;27703;51.980;5.848;2024-02-16T09:21:14;12.80;99.90
42019;DHT22;27703;51.980;5.848;2024-02-16T09:23:40;12.80;99.90
42019;DHT22;27703;51.980;5.848;2024-02-16T09:26:05;12.90;99.90
42019;DHT22;27703;51.980;5.848;2024-02-16T09:28:31;12.90;99.90
42019;DHT22;27703;51.980;5.848;2024-02-16T09:30:57;12.90;99.90
42019;DHT22;27703;51.980;5.848;2024-02-16T09:33:23;13.00;99.90
42019;DHT22;27703;51.980;5.848;2024-02-16T09:35:50;13.00;99.90
42019;DHT22;27703;51.980;5.848;2024-02-16T09:38:16;13.00;99.90
42019;DHT22;27703;51.980;5.848;2024-02-16T09:40:42;13.10;99.90
42019;DHT22;27703;51.980;5.848;2024-02-16T09:43:07;13.10;99.90
42019;DHT22;27703;51.980;5.848;2024-02-16T09:45:33;13.10;99.90
42019;DHT22;27703;51.980;5.848;2024-02-16T09:47:59;13.10;99.90
42019;DHT22;27703;51.980;5.848;2024-02-16T09:50:25;13.10;99.90
42019;DHT22;27703;51.980;5.848;2024-02-16T09:52:52;13.10;99.90
42019;DHT22;27703;51.980;5.848;2024-02-16T09:55:19;13.10;99.90
42019;DHT22;27703;51.980;5.848;2024-02-16T09:57:45;13.10;99.90
42019;DHT22;27703;51.980;5.848;2024-02-16T10:00:11;13.10;99.90
42019;DHT22;27703;51.980;5.848;2024-02-16T10:02:41;13.10;99.90
42019;DHT22;27703;51.980;5.848;2024-02-16T10:05:16;13.10;99.90
42019;DHT22;27703;51.980;5.848;2024-02-16T10:07:43;13.20;99.90
42019;DHT22;27703;51.980;5.848;2024-02-16T10:10:28;13.20;99.90
42019;DHT22;27703;51.980;5.848;2024-02-16T10:13:03;13.20;99.90
42019;DHT22;27703;51.980;5.848;2024-02-16T10:15:30;13.20;99.90
42019;DHT22;27703;51.980;5.848;2024-02-16T10:18:03;13.20;99.90
42019;DHT22;27703;51.980;5.848;2024-02-16T10:20:31;13.30;99.90
42019;DHT22;27703;51.980;5.848;2024-02-16T10:25:29;13.30;99.90
42019;DHT22;27703;51.980;5.848;2024-02-16T10:27:57;13.30;99.90
42019;DHT22;27703;51.980;5.848;2024-02-16T10:30:29;13.30;99.90
42019;DHT22;27703;51.980;5.848;2024-02-16T10:32:54;13.20;99.90
42019;DHT22;27703;51.980;5.848;2024-02-16T10:35:21;13.20;99.90
42019;DHT22;27703;51.980;5.848;2024-02-16T10:37:47;13.20;99.90
42019;DHT22;27703;51.980;5.848;2024-02-16T10:40:13;13.20;99.90
42019;DHT22;27703;51.980;5.848;2024-02-16T10:42:45;13.20;99.90
42019;DHT22;27703;51.980;5.848;2024-02-16T10:45:12;13.20;99.90
42019;DHT22;27703;51.980;5.848;2024-02-16T10:47:39;13.20;99.90
42019;DHT22;27703;51.980;5.848;2024-02-16T10:50:05;13.20;99.90
42019;DHT22;27703;51.980;5.848;2024-02-16T10:52:32;13.20;99.90
42019;DHT22;27703;51.980;5.848;2024-02-16T10:54:58;13.20;99.90
42019;DHT22;27703;51.980;5.848;2024-02-16T10:57:24;13.10;99.90
42019;DHT22;27703;51.980;5.848;2024-02-16T10:59:53;13.10;99.90
42019;DHT22;27703;51.980;5.848;2024-02-16T11:02:19;13.10;99.90
42019;DHT22;27703;51.980;5.848;2024-02-16T11:04:46;13.10;99.90
42019;DHT22;27703;51.980;5.848;2024-02-16T11:07:17;13.10;99.90
42019;DHT22;27703;51.980;5.848;2024-02-16T11:09:43;13.10;99.90
42019;DHT22;27703;51.980;5.848;2024-02-16T11:12:14;13.00;99.90
42019;DHT22;27703;51.980;5.848;2024-02-16T11:14:45;13.00;99.90
42019;DHT22;27703;51.980;5.848;2024-02-16T11:17:15;13.00;99.90
42019;DHT22;27703;51.980;5.848;2024-02-16T11:19:45;12.90;99.90
42019;DHT22;27703;51.980;5.848;2024-02-16T11:22:14;12.90;99.90
42019;DHT22;27703;51.980;5.848;2024-02-16T11:24:48;12.80;99.90
42019;DHT22;27703;51.980;5.848;2024-02-16T11:27:15;12.80;99.90
42019;DHT22;27703;51.980;5.848;2024-02-16T11:29:45;12.70;99.90
42019;DHT22;27703;51.980;5.848;2024-02-16T11:32:10;12.70;99.90
42019;DHT22;27703;51.980;5.848;2024-02-16T11:34:36;12.60;99.90
42019;DHT22;27703;51.980;5.848;2024-02-16T11:37:04;12.60;99.90
42019;DHT22;27703;51.980;5.848;2024-02-16T11:39:30;12.60;99.90
42019;DHT22;27703;51.980;5.848;2024-02-16T11:42:04;12.60;99.90
42019;DHT22;27703;51.980;5.848;2024-02-16T11:44:31;12.60;99.90
42019;DHT22;27703;51.980;5.848;2024-02-16T11:46:57;12.50;99.90
42019;DHT22;27703;51.980;5.848;2024-02-16T11:49:23;12.50;99.90
42019;DHT22;27703;51.980;5.848;2024-02-16T11:51:49;12.50;99.90
42019;DHT22;27703;51.980;5.848;2024-02-16T11:54:15;12.50;99.90
42019;DHT22;27703;51.980;5.848;2024-02-16T11:56:45;12.50;99.90
42019;DHT22;27703;51.980;5.848;2024-02-16T11:59:15;12.40;99.90
42019;DHT22;27703;51.980;5.848;2024-02-16T12:01:53;12.40;99.90
42019;DHT22;27703;51.980;5.848;2024-02-16T12:04:29;12.40;99.90
42019;DHT22;27703;51.980;5.848;2024-02-16T12:07:00;12.40;99.90
42019;DHT22;27703;51.980;5.848;2024-02-16T12:09:26;12.40;99.90
42019;DHT22;27703;51.980;5.848;2024-02-16T12:11:55;12.40;99.90
42019;DHT22;27703;51.980;5.848;2024-02-16T12:14:24;12.40;99.90
42019;DHT22;27703;51.980;5.848;2024-02-16T12:16:56;12.40;99.90
42019;DHT22;27703;51.980;5.848;2024-02-16T12:19:22;12.40;99.90
42019;DHT22;27703;51.980;5.848;2024-02-16T12:21:57;12.40;99.90
42019;DHT22;27703;51.980;5.848;2024-02-16T12:24:23;12.40;99.90
42019;DHT22;27703;51.980;5.848;2024-02-16T12:26:49;12.40;99.90
42019;DHT22;27703;51.980;5.848;2024-02-16T12:29:15;12.40;99.90
42019;DHT22;27703;51.980;5.848;2024-02-16T12:31:42;12.40;99.90
42019;DHT22;27703;51.980;5.848;2024-02-16T12:34:09;12.40;99.90
42019;DHT22;27703;51.980;5.848;2024-02-16T12:36:35;12.40;99.90
42019;DHT22;27703;51.980;5.848;2024-02-16T12:39:02;12.30;99.90
42019;DHT22;27703;51.980;5.848;2024-02-16T12:41:30;12.30;99.90
42019;DHT22;27703;51.980;5.848;2024-02-16T12:43:56;12.30;99.90
42019;DHT22;27703;51.980;5.848;2024-02-16T12:46:21;12.30;99.90
42019;DHT22;27703;51.980;5.848;2024-02-16T12:48:47;12.30;99.90
42019;DHT22;27703;51.980;5.848;2024-02-16T12:51:12;12.30;99.90
42019;DHT22;27703;51.980;5.848;2024-02-16T12:53:38;12.30;99.90
42019;DHT22;27703;51.980;5.848;2024-02-16T12:56:07;12.30;99.90
42019;DHT22;27703;51.980;5.848;2024-02-16T12:58:34;12.30;99.90
42019;DHT22;27703;51.980;5.848;2024-02-16T13:01:00;12.30;99.90
42019;DHT22;27703;51.980;5.848;2024-02-16T13:03:25;12.30;99.90
42019;DHT22;27703;51.980;5.848;2024-02-16T13:05:51;12.30;99.90
42019;DHT22;27703;51.980;5.848;2024-02-16T13:08:17;12.30;99.90
42019;DHT22;27703;51.980;5.848;2024-02-16T13:10:42;12.30;99.90
42019;DHT22;27703;51.980;5.848;2024-02-16T13:13:08;12.30;99.90
42019;DHT22;27703;51.980;5.848;2024-02-16T13:15:33;12.20;99.90
42019;DHT22;27703;51.980;5.848;2024-02-16T13:17:59;12.20;99.90
42019;DHT22;27703;51.980;5.848;2024-02-16T13:20:25;12.20;99.90
42019;DHT22;27703;51.980;5.848;2024-02-16T13:22:50;12.20;99.90
42019;DHT22;27703;51.980;5.848;2024-02-16T13:25:18;12.30;99.90
42019;DHT22;27703;51.980;5.848;2024-02-16T13:27:43;12.20;99.90
42019;DHT22;27703;51.980;5.848;2024-02-16T13:30:09;12.20;99.90
42019;DHT22;27703;51.980;5.848;2024-02-16T13:32:35;12.30;99.90
42019;DHT22;27703;51.980;5.848;2024-02-16T13:35:02;12.30;99.90
42019;DHT22;27703;51.980;5.848;2024-02-16T13:37:28;12.30;99.90
42019;DHT22;27703;51.980;5.848;2024-02-16T13:39:53;12.30;99.90
42019;DHT22;27703;51.980;5.848;2024-02-16T13:42:19;12.30;99.90
42019;DHT22;27703;51.980;5.848;2024-02-16T13:44:45;12.40;99.90
42019;DHT22;27703;51.980;5.848;2024-02-16T13:47:10;12.40;99.90
42019;DHT22;27703;51.980;5.848;2024-02-16T13:49:36;12.40;99.90
42019;DHT22;27703;51.980;5.848;2024-02-16T13:52:02;12.40;99.90
42019;DHT22;27703;51.980;5.848;2024-02-16T13:54:28;12.40;99.90
42019;DHT22;27703;51.980;5.848;2024-02-16T13:56:53;12.40;99.90
42019;DHT22;27703;51.980;5.848;2024-02-16T13:59:19;12.40;99.90
42019;DHT22;27703;51.980;5.848;2024-02-16T14:01:46;12.40;99.90
42019;DHT22;27703;51.980;5.848;2024-02-16T14:04:11;12.40;99.90
42019;DHT22;27703;51.980;5.848;2024-02-16T14:06:38;12.50;99.90
42019;DHT22;27703;51.980;5.848;2024-02-16T14:09:04;12.50;99.90
42019;DHT22;27703;51.980;5.848;2024-02-16T14:11:39;12.50;99.90
42019;DHT22;27703;51.980;5.848;2024-02-16T14:14:07;12.50;99.90
42019;DHT22;27703;51.980;5.848;2024-02-16T14:16:33;12.50;99.90
42019;DHT22;27703;51.980;5.848;2024-02-16T14:18:59;12.50;99.90
42019;DHT22;27703;51.980;5.848;2024-02-16T14:21:24;12.50;99.90
42019;DHT22;27703;51.980;5.848;2024-02-16T14:23:50;12.40;99.90
42019;DHT22;27703;51.980;5.848;2024-02-16T14:26:16;12.50;99.90
42019;DHT22;27703;51.980;5.848;2024-02-16T14:28:42;12.50;99.90
42019;DHT22;27703;51.980;5.848;2024-02-16T14:31:08;12.40;99.90
42019;DHT22;27703;51.980;5.848;2024-02-16T14:33:34;12.40;99.90
42019;DHT22;27703;51.980;5.848;2024-02-16T14:36:00;12.40;99.90
42019;DHT22;27703;51.980;5.848;2024-02-16T14:38:26;12.40;99.90
42019;DHT22;27703;51.980;5.848;2024-02-16T14:40:53;12.40;99.90
42019;DHT22;27703;51.980;5.848;2024-02-16T14:43:18;12.50;99.90
42019;DHT22;27703;51.980;5.848;2024-02-16T14:45:44;12.60;99.90
42019;DHT22;27703;51.980;5.848;2024-02-16T14:48:09;12.50;99.90
42019;DHT22;27703;51.980;5.848;2024-02-16T14:50:35;12.60;99.90
42019;DHT22;27703;51.980;5.848;2024-02-16T14:53:01;12.50;99.90
42019;DHT22;27703;51.980;5.848;2024-02-16T14:55:28;12.50;99.90
42019;DHT22;27703;51.980;5.848;2024-02-16T14:57:53;12.50;99.90
42019;DHT22;27703;51.980;5.848;2024-02-16T15:00:19;12.50;99.90
42019;DHT22;27703;51.980;5.848;2024-02-16T15:02:45;12.50;99.90
42019;DHT22;27703;51.980;5.848;2024-02-16T15:05:13;12.50;99.90
42019;DHT22;27703;51.980;5.848;2024-02-16T15:07:38;12.50;99.90
42019;DHT22;27703;51.980;5.848;2024-02-16T15:10:04;12.50;99.90
42019;DHT22;27703;51.980;5.848;2024-02-16T15:12:30;12.50;99.90
42019;DHT22;27703;51.980;5.848;2024-02-16T15:14:55;12.50;99.90
42019;DHT22;27703;51.980;5.848;2024-02-16T15:17:21;12.50;99.90
42019;DHT22;27703;51.980;5.848;2024-02-16T15:19:47;12.50;99.90
42019;DHT22;27703;51.980;5.848;2024-02-16T15:22:13;12.50;99.90
42019;DHT22;27703;51.980;5.848;2024-02-16T15:24:38;12.50;99.90
42019;DHT22;27703;51.980;5.848;2024-02-16T15:27:04;12.50;99.90